• Join FlightAware (Why Join?)
  • Login
  • US Flag 
06:24PM EDT


 

Airport Tracker/Info


-or-


 

Live Flight TrackerFlight Track Log ✈ AJT772 ✈ 06-May-2013 ✈ MMMX / MEX - KMIA

Flight Track Log - Related Links

Times and Time Zones

All times are in EDT time to prevent confusion due to time zone crossing. See the AJT772 flight status page for this flight to view local times or setup timezone preferences in your user account.

Time Position Orientation Groundspeed Altitude Reporting Facility
EDT Latitude Longitude Course Direction KTS MPH feet Rate Location/Type
05:48AM 23.3356 -84.5175 62° Northeast 487 560 38,900  Level Miami Center
05:49AM 23.4075 -84.3706 62° Northeast 525 604 38,900  Level Miami Center
05:50AM 23.4731 -84.2253 64° Northeast 540 621 38,900  Level Miami Center
05:51AM 23.4536 -83.7156 92° East 540 621 38,900  Level Miami Center
05:52AM 23.6064 -83.9275 308° West 469 540 38,900  Level Miami Center
05:53AM 23.6781 -83.7772 62° Northeast 513 590 38,900  Level Miami Center
05:54AM 23.7656 -83.6439 54° Northeast 539 620 38,900  Level Miami Center
05:55AM 23.8531 -83.5081 55° Northeast 539 620 38,900  Level Miami Center
05:56AM 23.9383 -83.3694 56° Northeast 539 620 38,900  Level Miami Center
05:57AM 24.0236 -83.2308 56° Northeast 544 626 38,900  Level Miami Center
05:58AM 24.1108 -83.0942 55° Northeast 544 626 38,900  Level Miami Center
05:59AM 24.1958 -82.9550 56° Northeast 544 626 38,900  Level Miami Center
06:00AM 24.2767 -82.8178 57° Northeast 544 626 38,900  Level Miami Center
06:01AM 24.3717 -82.6833 52° Northeast 544 626 38,900  Level Miami Center
06:02AM 24.4625 -82.5508 53° Northeast 550 633 38,900  Level Miami Center
06:03AM 24.5644 -82.3956 54° Northeast 560 644 38,900  Level Miami Center
06:04AM 24.6547 -82.2628 53° Northeast 554 638 38,900  Level Miami Center
06:05AM 24.7453 -82.1294 53° Northeast 549 632 38,900 -120 Level Miami Center
06:06AM 24.8356 -81.9939 54° Northeast 549 632 38,700 -900 Descending Miami Center
06:07AM 24.9300 -81.8558 53° Northeast 554 638 37,100 -1,500 Descending Miami Center
06:08AM 25.0158 -81.7242 54° Northeast 554 638 35,700 -2,280 Descending Miami Center
06:09AM 25.1036 -81.5992 52° Northeast 534 615 32,600 -3,180 Descending Miami Center
06:10AM 25.1869 -81.4739 54° Northeast 523 602 29,400 -3,180 Descending Miami Center
06:11AM 25.2681 -81.3506 54° Northeast 509 586 26,300 -3,120 Descending Miami Center
06:12AM 25.3489 -81.2317 53° Northeast 499 574 23,200 -2,700 Descending Miami Center
06:13AM 25.4211 -81.1194 55° Northeast 480 552 21,000 -2,640 Descending Miami Center
06:13AM 25.4431 -81.0811 58° Northeast 435 501 19,700 -3,000 Descending Miami Center
06:14AM 25.4931 -81.0114 52° Northeast 454 522 18,000 -2,220 Descending Miami Center
06:15AM 25.5325 -80.9483 55° Northeast 423 487 17,000 -2,100 Descending Miami Center
06:15AM 25.5608 -80.9056 54° Northeast 434 499 15,900 -2,100 Descending Miami Center
06:16AM 25.5792 -80.8372 73° East 398 458 14,900 -1,620 Descending Miami Center
06:16AM 25.5931 -80.7914 71° East 397 457 14,300 -1,800 Descending Miami Center
06:17AM 25.6053 -80.7250 78° East 369 425 13,100 -1,800 Descending Miami Center
06:17AM 25.6147 -80.6817 76° East 372 428 12,500 -1,440 Descending Miami Center
06:18AM 25.6311 -80.6178 74° East 345 397 11,700 -1,200 Descending Miami Center
06:18AM 25.6381 -80.5903 74° East 351 404 11,300 -1,380 Descending Miami Center
06:19AM 25.6522 -80.5217 77° East 326 375 10,300 -1,620 Descending Miami Center
06:19AM 25.6614 -80.4850 74° East 327 376 9,700 -1,680 Descending Miami Center
06:20AM 25.6731 -80.4347 76° East 314 361 8,800 -1,440 Descending Miami Center
06:20AM 25.6825 -80.3981 74° East 322 371 8,300 -1,200 Descending Miami Center
06:21AM 25.6942 -80.3431 77° East 296 341 7,600 -1,200 Descending Miami Center
06:21AM 25.7033 -80.3086 74° East 306 352 7,100 -900 Descending Miami Center
06:22AM 25.7128 -80.2606 78° East 271 312 6,700 -600 Descending Miami Center
06:22AM 25.7197 -80.2308 75° East 285 328 6,500 -1,140 Descending Miami Center
06:23AM 25.7272 -80.1756 81° East 251 289 5,500 -1,440 Descending Miami Center
06:23AM 25.7342 -80.1528 71° East 262 302 5,100 -1,200 Descending Miami Center
06:24AM 25.7642 -80.1167 47° Northeast 251 289 4,300 -1,140 Descending Miami Center
06:25AM 25.8008 -80.1522 319° Northwest 179 206 3,200 -1,500 Descending Miami Center
06:26AM 25.8019 -80.2053 271° West 153 176 1,200 -1,320 Descending Miami Center
06:27AM 25.8008 -80.2444 268° West 119 137 500 -720 Descending Miami Center
06:29AM 25.7833 -80.2833 90° East  Level FlightAware Approximate
06:36AM 25.7954 -80.2901 90° East  Level Estimated